sensor_id;sensor_type;location;lat;lon;timestamp;P1;durP1;ratioP1;P2;durP2;ratioP2
4700;SDS011;8724;51.272;6.554;2022-08-19T00:00:05;13.13;;;11.13;;
4700;SDS011;8724;51.272;6.554;2022-08-19T00:02:36;11.57;;;10.50;;
4700;SDS011;8724;51.272;6.554;2022-08-19T00:05:15;11.83;;;9.70;;
4700;SDS011;8724;51.272;6.554;2022-08-19T00:07:45;12.97;;;11.50;;
4700;SDS011;8724;51.272;6.554;2022-08-19T00:10:14;11.77;;;10.63;;
4700;SDS011;8724;51.272;6.554;2022-08-19T00:12:45;11.93;;;10.60;;
4700;SDS011;8724;51.272;6.554;2022-08-19T00:15:15;12.93;;;11.27;;
4700;SDS011;8724;51.272;6.554;2022-08-19T00:17:45;11.07;;;10.07;;
4700;SDS011;8724;51.272;6.554;2022-08-19T00:20:15;10.87;;;9.90;;
4700;SDS011;8724;51.272;6.554;2022-08-19T00:22:45;10.83;;;9.73;;
4700;SDS011;8724;51.272;6.554;2022-08-19T00:25:14;13.63;;;10.60;;
4700;SDS011;8724;51.272;6.554;2022-08-19T00:27:43;10.50;;;9.50;;
4700;SDS011;8724;51.272;6.554;2022-08-19T00:30:13;10.00;;;9.10;;
4700;SDS011;8724;51.272;6.554;2022-08-19T00:32:41;9.97;;;8.97;;
4700;SDS011;8724;51.272;6.554;2022-08-19T00:35:10;10.93;;;9.90;;
4700;SDS011;8724;51.272;6.554;2022-08-19T00:37:38;10.80;;;9.90;;
4700;SDS011;8724;51.272;6.554;2022-08-19T00:40:10;12.10;;;11.00;;
4700;SDS011;8724;51.272;6.554;2022-08-19T00:42:40;11.60;;;10.50;;
4700;SDS011;8724;51.272;6.554;2022-08-19T00:45:11;10.23;;;9.20;;
4700;SDS011;8724;51.272;6.554;2022-08-19T00:47:43;12.57;;;10.50;;
4700;SDS011;8724;51.272;6.554;2022-08-19T00:50:13;12.57;;;11.47;;
4700;SDS011;8724;51.272;6.554;2022-08-19T00:52:45;11.60;;;10.50;;
4700;SDS011;8724;51.272;6.554;2022-08-19T00:55:17;10.63;;;9.60;;
4700;SDS011;8724;51.272;6.554;2022-08-19T00:57:51;13.20;;;11.77;;
4700;SDS011;8724;51.272;6.554;2022-08-19T01:00:24;16.43;;;12.73;;
4700;SDS011;8724;51.272;6.554;2022-08-19T01:02:54;15.03;;;11.80;;
4700;SDS011;8724;51.272;6.554;2022-08-19T01:05:23;11.60;;;10.60;;
4700;SDS011;8724;51.272;6.554;2022-08-19T01:07:55;11.93;;;10.73;;
4700;SDS011;8724;51.272;6.554;2022-08-19T01:10:27;14.47;;;10.37;;
4700;SDS011;8724;51.272;6.554;2022-08-19T01:13:02;11.80;;;10.50;;
4700;SDS011;8724;51.272;6.554;2022-08-19T01:15:34;12.03;;;10.47;;
4700;SDS011;8724;51.272;6.554;2022-08-19T01:18:08;12.77;;;11.50;;
4700;SDS011;8724;51.272;6.554;2022-08-19T01:20:39;15.00;;;10.90;;
4700;SDS011;8724;51.272;6.554;2022-08-19T01:23:10;12.47;;;11.27;;
4700;SDS011;8724;51.272;6.554;2022-08-19T01:25:42;15.70;;;10.23;;
4700;SDS011;8724;51.272;6.554;2022-08-19T01:28:15;13.00;;;11.70;;
4700;SDS011;8724;51.272;6.554;2022-08-19T01:30:59;11.93;;;10.93;;
4700;SDS011;8724;51.272;6.554;2022-08-19T01:33:33;11.10;;;9.97;;
4700;SDS011;8724;51.272;6.554;2022-08-19T01:36:06;11.00;;;9.93;;
4700;SDS011;8724;51.272;6.554;2022-08-19T01:38:40;11.03;;;10.10;;
4700;SDS011;8724;51.272;6.554;2022-08-19T01:41:11;11.27;;;10.27;;
4700;SDS011;8724;51.272;6.554;2022-08-19T01:43:39;11.33;;;10.27;;
4700;SDS011;8724;51.272;6.554;2022-08-19T01:46:28;12.90;;;11.50;;
4700;SDS011;8724;51.272;6.554;2022-08-19T01:48:56;14.50;;;13.20;;
4700;SDS011;8724;51.272;6.554;2022-08-19T01:51:25;13.53;;;12.30;;
4700;SDS011;8724;51.272;6.554;2022-08-19T01:53:55;16.90;;;14.97;;
4700;SDS011;8724;51.272;6.554;2022-08-19T01:56:24;16.10;;;14.50;;
4700;SDS011;8724;51.272;6.554;2022-08-19T01:58:54;17.20;;;14.30;;
4700;SDS011;8724;51.272;6.554;2022-08-19T02:01:25;14.47;;;12.93;;
4700;SDS011;8724;51.272;6.554;2022-08-19T02:03:57;13.90;;;12.60;;
4700;SDS011;8724;51.272;6.554;2022-08-19T02:06:27;15.00;;;13.70;;
4700;SDS011;8724;51.272;6.554;2022-08-19T02:08:57;14.30;;;13.00;;
4700;SDS011;8724;51.272;6.554;2022-08-19T02:11:27;16.17;;;14.47;;
4700;SDS011;8724;51.272;6.554;2022-08-19T02:13:58;17.73;;;14.87;;
4700;SDS011;8724;51.272;6.554;2022-08-19T02:16:28;17.07;;;15.37;;
4700;SDS011;8724;51.272;6.554;2022-08-19T02:18:57;14.70;;;13.20;;
4700;SDS011;8724;51.272;6.554;2022-08-19T02:21:26;16.40;;;14.90;;
4700;SDS011;8724;51.272;6.554;2022-08-19T02:23:56;16.40;;;15.00;;
4700;SDS011;8724;51.272;6.554;2022-08-19T02:26:25;15.30;;;13.80;;
4700;SDS011;8724;51.272;6.554;2022-08-19T02:28:54;13.73;;;12.40;;
4700;SDS011;8724;51.272;6.554;2022-08-19T02:31:23;14.47;;;13.07;;
4700;SDS011;8724;51.272;6.554;2022-08-19T02:33:54;14.80;;;13.30;;
4700;SDS011;8724;51.272;6.554;2022-08-19T02:36:23;12.23;;;11.13;;
4700;SDS011;8724;51.272;6.554;2022-08-19T02:38:52;12.60;;;11.50;;
4700;SDS011;8724;51.272;6.554;2022-08-19T02:41:23;11.80;;;10.73;;
4700;SDS011;8724;51.272;6.554;2022-08-19T02:43:53;14.90;;;13.43;;
4700;SDS011;8724;51.272;6.554;2022-08-19T02:46:44;16.10;;;14.70;;
4700;SDS011;8724;51.272;6.554;2022-08-19T02:49:13;15.43;;;13.80;;
4700;SDS011;8724;51.272;6.554;2022-08-19T02:51:43;16.23;;;14.67;;
4700;SDS011;8724;51.272;6.554;2022-08-19T02:54:12;15.83;;;14.20;;
4700;SDS011;8724;51.272;6.554;2022-08-19T02:56:43;18.53;;;16.77;;
4700;SDS011;8724;51.272;6.554;2022-08-19T02:59:12;17.57;;;15.63;;
4700;SDS011;8724;51.272;6.554;2022-08-19T03:01:41;16.27;;;14.57;;
4700;SDS011;8724;51.272;6.554;2022-08-19T03:04:11;21.17;;;15.20;;
4700;SDS011;8724;51.272;6.554;2022-08-19T03:06:41;17.60;;;15.83;;
4700;SDS011;8724;51.272;6.554;2022-08-19T03:09:12;15.60;;;14.10;;
4700;SDS011;8724;51.272;6.554;2022-08-19T03:11:41;17.30;;;15.80;;
4700;SDS011;8724;51.272;6.554;2022-08-19T03:14:11;15.17;;;13.70;;
4700;SDS011;8724;51.272;6.554;2022-08-19T03:16:42;14.97;;;13.30;;
4700;SDS011;8724;51.272;6.554;2022-08-19T03:19:13;19.20;;;17.40;;
4700;SDS011;8724;51.272;6.554;2022-08-19T03:21:43;19.20;;;17.30;;
4700;SDS011;8724;51.272;6.554;2022-08-19T03:24:13;18.30;;;16.43;;
4700;SDS011;8724;51.272;6.554;2022-08-19T03:26:44;20.90;;;18.10;;
4700;SDS011;8724;51.272;6.554;2022-08-19T03:29:15;20.97;;;19.07;;
4700;SDS011;8724;51.272;6.554;2022-08-19T03:31:56;21.50;;;19.23;;
4700;SDS011;8724;51.272;6.554;2022-08-19T03:34:28;23.30;;;20.40;;
4700;SDS011;8724;51.272;6.554;2022-08-19T03:36:58;25.93;;;23.40;;
4700;SDS011;8724;51.272;6.554;2022-08-19T03:39:30;24.77;;;21.60;;
4700;SDS011;8724;51.272;6.554;2022-08-19T03:42:00;24.57;;;22.10;;
4700;SDS011;8724;51.272;6.554;2022-08-19T03:44:49;23.33;;;19.20;;
4700;SDS011;8724;51.272;6.554;2022-08-19T03:47:18;24.47;;;22.10;;
4700;SDS011;8724;51.272;6.554;2022-08-19T03:49:46;22.13;;;20.03;;
4700;SDS011;8724;51.272;6.554;2022-08-19T03:52:14;25.00;;;22.50;;
4700;SDS011;8724;51.272;6.554;2022-08-19T03:54:43;24.13;;;21.83;;
4700;SDS011;8724;51.272;6.554;2022-08-19T03:57:12;24.77;;;22.17;;
4700;SDS011;8724;51.272;6.554;2022-08-19T03:59:41;23.73;;;21.53;;
4700;SDS011;8724;51.272;6.554;2022-08-19T04:02:11;23.93;;;21.53;;
4700;SDS011;8724;51.272;6.554;2022-08-19T04:04:41;26.73;;;23.93;;
4700;SDS011;8724;51.272;6.554;2022-08-19T04:07:11;39.17;;;32.33;;
4700;SDS011;8724;51.272;6.554;2022-08-19T04:09:42;32.07;;;28.73;;
4700;SDS011;8724;51.272;6.554;2022-08-19T04:12:10;34.23;;;30.80;;
4700;SDS011;8724;51.272;6.554;2022-08-19T04:14:41;31.57;;;28.27;;
4700;SDS011;8724;51.272;6.554;2022-08-19T04:17:09;25.87;;;23.33;;
4700;SDS011;8724;51.272;6.554;2022-08-19T04:19:40;24.73;;;22.50;;
4700;SDS011;8724;51.272;6.554;2022-08-19T04:22:09;26.57;;;23.93;;
4700;SDS011;8724;51.272;6.554;2022-08-19T04:24:38;23.27;;;21.13;;
4700;SDS011;8724;51.272;6.554;2022-08-19T04:27:06;26.93;;;24.27;;
4700;SDS011;8724;51.272;6.554;2022-08-19T04:29:36;31.20;;;28.17;;
4700;SDS011;8724;51.272;6.554;2022-08-19T04:32:06;30.40;;;27.30;;
4700;SDS011;8724;51.272;6.554;2022-08-19T04:34:35;26.80;;;24.20;;
4700;SDS011;8724;51.272;6.554;2022-08-19T04:37:24;33.87;;;28.10;;
4700;SDS011;8724;51.272;6.554;2022-08-19T04:40:01;30.07;;;27.17;;
4700;SDS011;8724;51.272;6.554;2022-08-19T04:42:49;33.23;;;30.00;;
4700;SDS011;8724;51.272;6.554;2022-08-19T04:45:19;33.60;;;30.37;;
4700;SDS011;8724;51.272;6.554;2022-08-19T04:47:48;31.80;;;28.67;;
4700;SDS011;8724;51.272;6.554;2022-08-19T04:50:39;33.33;;;30.00;;
4700;SDS011;8724;51.272;6.554;2022-08-19T04:53:09;35.47;;;31.77;;
4700;SDS011;8724;51.272;6.554;2022-08-19T04:55:38;49.57;;;44.33;;
4700;SDS011;8724;51.272;6.554;2022-08-19T04:58:08;44.90;;;40.37;;
4700;SDS011;8724;51.272;6.554;2022-08-19T05:00:39;35.10;;;31.67;;
4700;SDS011;8724;51.272;6.554;2022-08-19T05:03:08;34.80;;;31.27;;
4700;SDS011;8724;51.272;6.554;2022-08-19T05:05:40;34.50;;;31.10;;
4700;SDS011;8724;51.272;6.554;2022-08-19T05:08:11;30.73;;;27.63;;
4700;SDS011;8724;51.272;6.554;2022-08-19T05:10:40;29.80;;;27.00;;
4700;SDS011;8724;51.272;6.554;2022-08-19T05:13:09;30.20;;;27.40;;
4700;SDS011;8724;51.272;6.554;2022-08-19T05:15:39;31.40;;;28.40;;
4700;SDS011;8724;51.272;6.554;2022-08-19T05:18:08;31.90;;;28.47;;
4700;SDS011;8724;51.272;6.554;2022-08-19T05:20:54;33.30;;;29.70;;
4700;SDS011;8724;51.272;6.554;2022-08-19T05:23:39;37.27;;;33.40;;
4700;SDS011;8724;51.272;6.554;2022-08-19T05:26:08;36.60;;;32.90;;
4700;SDS011;8724;51.272;6.554;2022-08-19T05:28:37;41.40;;;37.30;;
4700;SDS011;8724;51.272;6.554;2022-08-19T05:31:07;34.17;;;30.73;;
4700;SDS011;8724;51.272;6.554;2022-08-19T05:33:35;36.83;;;33.17;;
4700;SDS011;8724;51.272;6.554;2022-08-19T05:36:04;38.63;;;34.50;;
4700;SDS011;8724;51.272;6.554;2022-08-19T05:38:33;32.73;;;29.33;;
4700;SDS011;8724;51.272;6.554;2022-08-19T05:41:06;38.33;;;34.23;;
4700;SDS011;8724;51.272;6.554;2022-08-19T05:43:35;41.33;;;37.33;;
4700;SDS011;8724;51.272;6.554;2022-08-19T05:46:05;69.37;;;60.17;;
4700;SDS011;8724;51.272;6.554;2022-08-19T05:48:35;44.90;;;40.00;;
4700;SDS011;8724;51.272;6.554;2022-08-19T05:51:04;38.30;;;34.27;;
4700;SDS011;8724;51.272;6.554;2022-08-19T05:53:34;34.03;;;30.70;;
4700;SDS011;8724;51.272;6.554;2022-08-19T05:56:03;36.27;;;31.40;;
4700;SDS011;8724;51.272;6.554;2022-08-19T05:58:33;35.87;;;31.60;;
4700;SDS011;8724;51.272;6.554;2022-08-19T06:01:02;32.47;;;29.20;;
4700;SDS011;8724;51.272;6.554;2022-08-19T06:03:33;35.13;;;31.53;;
4700;SDS011;8724;51.272;6.554;2022-08-19T06:06:04;34.30;;;30.90;;
4700;SDS011;8724;51.272;6.554;2022-08-19T06:08:34;34.20;;;30.60;;
4700;SDS011;8724;51.272;6.554;2022-08-19T06:11:12;34.40;;;30.90;;
4700;SDS011;8724;51.272;6.554;2022-08-19T06:13:43;29.97;;;26.97;;
4700;SDS011;8724;51.272;6.554;2022-08-19T06:16:13;29.60;;;26.50;;
4700;SDS011;8724;51.272;6.554;2022-08-19T06:18:47;32.30;;;29.20;;
4700;SDS011;8724;51.272;6.554;2022-08-19T06:21:19;29.30;;;26.10;;
4700;SDS011;8724;51.272;6.554;2022-08-19T06:23:47;49.13;;;43.93;;
4700;SDS011;8724;51.272;6.554;2022-08-19T06:26:17;47.57;;;42.50;;
4700;SDS011;8724;51.272;6.554;2022-08-19T06:28:47;35.07;;;31.30;;
4700;SDS011;8724;51.272;6.554;2022-08-19T06:31:17;29.37;;;26.23;;
4700;SDS011;8724;51.272;6.554;2022-08-19T06:33:49;26.63;;;24.03;;
4700;SDS011;8724;51.272;6.554;2022-08-19T06:36:22;21.80;;;19.60;;
4700;SDS011;8724;51.272;6.554;2022-08-19T06:38:58;27.40;;;24.60;;
4700;SDS011;8724;51.272;6.554;2022-08-19T06:41:27;28.07;;;25.03;;
4700;SDS011;8724;51.272;6.554;2022-08-19T06:43:56;53.20;;;47.40;;
4700;SDS011;8724;51.272;6.554;2022-08-19T06:46:24;40.37;;;36.03;;
4700;SDS011;8724;51.272;6.554;2022-08-19T06:48:56;29.77;;;26.57;;
4700;SDS011;8724;51.272;6.554;2022-08-19T06:51:25;24.33;;;21.87;;
4700;SDS011;8724;51.272;6.554;2022-08-19T06:53:57;25.97;;;23.57;;
4700;SDS011;8724;51.272;6.554;2022-08-19T06:56:26;24.50;;;22.07;;
4700;SDS011;8724;51.272;6.554;2022-08-19T06:59:01;26.13;;;23.30;;
4700;SDS011;8724;51.272;6.554;2022-08-19T07:01:33;24.80;;;22.00;;
4700;SDS011;8724;51.272;6.554;2022-08-19T07:04:06;22.60;;;20.30;;
4700;SDS011;8724;51.272;6.554;2022-08-19T07:06:37;35.47;;;31.57;;
4700;SDS011;8724;51.272;6.554;2022-08-19T07:09:10;44.10;;;37.00;;
4700;SDS011;8724;51.272;6.554;2022-08-19T07:11:44;37.50;;;33.50;;
4700;SDS011;8724;51.272;6.554;2022-08-19T07:14:15;43.63;;;34.03;;
4700;SDS011;8724;51.272;6.554;2022-08-19T07:16:46;41.43;;;35.97;;
4700;SDS011;8724;51.272;6.554;2022-08-19T07:19:18;42.57;;;38.17;;
4700;SDS011;8724;51.272;6.554;2022-08-19T07:21:47;40.63;;;34.90;;
4700;SDS011;8724;51.272;6.554;2022-08-19T07:24:20;45.37;;;40.47;;
4700;SDS011;8724;51.272;6.554;2022-08-19T07:26:51;39.80;;;35.50;;
4700;SDS011;8724;51.272;6.554;2022-08-19T07:29:21;42.37;;;37.87;;
4700;SDS011;8724;51.272;6.554;2022-08-19T07:31:54;37.27;;;33.43;;
4700;SDS011;8724;51.272;6.554;2022-08-19T07:34:28;50.67;;;40.97;;
4700;SDS011;8724;51.272;6.554;2022-08-19T07:36:57;39.77;;;35.17;;
4700;SDS011;8724;51.272;6.554;2022-08-19T07:39:27;43.30;;;36.87;;
4700;SDS011;8724;51.272;6.554;2022-08-19T07:41:58;43.00;;;38.07;;
4700;SDS011;8724;51.272;6.554;2022-08-19T07:44:29;49.10;;;42.47;;
4700;SDS011;8724;51.272;6.554;2022-08-19T07:46:57;45.57;;;38.13;;
4700;SDS011;8724;51.272;6.554;2022-08-19T07:49:27;43.33;;;37.83;;
4700;SDS011;8724;51.272;6.554;2022-08-19T07:51:57;55.80;;;43.97;;
4700;SDS011;8724;51.272;6.554;2022-08-19T07:54:28;54.07;;;41.30;;
4700;SDS011;8724;51.272;6.554;2022-08-19T07:56:58;55.77;;;41.90;;
4700;SDS011;8724;51.272;6.554;2022-08-19T07:59:26;49.50;;;41.13;;
4700;SDS011;8724;51.272;6.554;2022-08-19T08:01:55;40.17;;;33.90;;
4700;SDS011;8724;51.272;6.554;2022-08-19T08:04:27;38.23;;;33.87;;
4700;SDS011;8724;51.272;6.554;2022-08-19T08:07:14;39.37;;;34.30;;
4700;SDS011;8724;51.272;6.554;2022-08-19T08:10:03;42.17;;;34.37;;
4700;SDS011;8724;51.272;6.554;2022-08-19T08:12:46;35.13;;;29.57;;
4700;SDS011;8724;51.272;6.554;2022-08-19T08:15:35;40.07;;;33.17;;
4700;SDS011;8724;51.272;6.554;2022-08-19T08:18:09;40.30;;;35.27;;
4700;SDS011;8724;51.272;6.554;2022-08-19T08:20:41;44.87;;;29.00;;
4700;SDS011;8724;51.272;6.554;2022-08-19T08:23:09;31.83;;;27.10;;
4700;SDS011;8724;51.272;6.554;2022-08-19T08:25:51;28.23;;;25.17;;
4700;SDS011;8724;51.272;6.554;2022-08-19T08:28:22;30.97;;;26.73;;
4700;SDS011;8724;51.272;6.554;2022-08-19T08:30:51;26.30;;;23.33;;
4700;SDS011;8724;51.272;6.554;2022-08-19T08:33:22;27.07;;;24.17;;
4700;SDS011;8724;51.272;6.554;2022-08-19T08:36:02;29.33;;;26.10;;
4700;SDS011;8724;51.272;6.554;2022-08-19T08:38:32;28.30;;;24.60;;
4700;SDS011;8724;51.272;6.554;2022-08-19T08:41:07;24.07;;;21.60;;
4700;SDS011;8724;51.272;6.554;2022-08-19T08:43:46;21.50;;;19.13;;
4700;SDS011;8724;51.272;6.554;2022-08-19T08:46:19;22.33;;;19.83;;
4700;SDS011;8724;51.272;6.554;2022-08-19T08:48:59;20.97;;;17.30;;
4700;SDS011;8724;51.272;6.554;2022-08-19T08:51:37;19.40;;;17.00;;
4700;SDS011;8724;51.272;6.554;2022-08-19T08:54:10;23.10;;;18.80;;
4700;SDS011;8724;51.272;6.554;2022-08-19T08:56:41;19.20;;;17.33;;
4700;SDS011;8724;51.272;6.554;2022-08-19T08:59:14;20.17;;;16.00;;
4700;SDS011;8724;51.272;6.554;2022-08-19T09:01:48;18.83;;;16.87;;
4700;SDS011;8724;51.272;6.554;2022-08-19T09:04:16;19.17;;;17.27;;
4700;SDS011;8724;51.272;6.554;2022-08-19T09:06:48;18.50;;;16.60;;
4700;SDS011;8724;51.272;6.554;2022-08-19T09:09:24;19.33;;;16.47;;
4700;SDS011;8724;51.272;6.554;2022-08-19T09:12:01;15.10;;;13.60;;
4700;SDS011;8724;51.272;6.554;2022-08-19T09:14:40;16.90;;;14.80;;
4700;SDS011;8724;51.272;6.554;2022-08-19T09:17:17;18.13;;;16.20;;
4700;SDS011;8724;51.272;6.554;2022-08-19T09:19:51;15.87;;;13.90;;
4700;SDS011;8724;51.272;6.554;2022-08-19T09:22:22;19.13;;;16.93;;
4700;SDS011;8724;51.272;6.554;2022-08-19T09:24:53;17.40;;;15.60;;
4700;SDS011;8724;51.272;6.554;2022-08-19T09:27:22;20.67;;;17.43;;
4700;SDS011;8724;51.272;6.554;2022-08-19T09:30:10;20.83;;;18.60;;
4700;SDS011;8724;51.272;6.554;2022-08-19T09:32:41;18.40;;;16.60;;
4700;SDS011;8724;51.272;6.554;2022-08-19T09:35:10;21.13;;;17.80;;
4700;SDS011;8724;51.272;6.554;2022-08-19T09:37:42;20.40;;;18.23;;
4700;SDS011;8724;51.272;6.554;2022-08-19T09:40:11;14.43;;;12.97;;
4700;SDS011;8724;51.272;6.554;2022-08-19T09:42:41;13.07;;;11.67;;
4700;SDS011;8724;51.272;6.554;2022-08-19T09:45:17;16.10;;;13.63;;
4700;SDS011;8724;51.272;6.554;2022-08-19T09:47:49;11.73;;;10.57;;
4700;SDS011;8724;51.272;6.554;2022-08-19T09:50:21;13.70;;;11.73;;
4700;SDS011;8724;51.272;6.554;2022-08-19T09:52:51;11.07;;;9.13;;
4700;SDS011;8724;51.272;6.554;2022-08-19T09:55:24;24.23;;;16.87;;
4700;SDS011;8724;51.272;6.554;2022-08-19T09:57:56;23.87;;;19.57;;
4700;SDS011;8724;51.272;6.554;2022-08-19T10:00:25;15.50;;;13.90;;
4700;SDS011;8724;51.272;6.554;2022-08-19T10:02:54;12.70;;;10.87;;
4700;SDS011;8724;51.272;6.554;2022-08-19T10:05:22;11.50;;;10.30;;
4700;SDS011;8724;51.272;6.554;2022-08-19T10:08:09;9.83;;;8.83;;
4700;SDS011;8724;51.272;6.554;2022-08-19T10:10:40;13.00;;;10.57;;
4700;SDS011;8724;51.272;6.554;2022-08-19T10:13:12;9.90;;;8.90;;
4700;SDS011;8724;51.272;6.554;2022-08-19T10:15:42;7.90;;;7.20;;
4700;SDS011;8724;51.272;6.554;2022-08-19T10:18:15;9.90;;;9.00;;
4700;SDS011;8724;51.272;6.554;2022-08-19T10:20:45;8.43;;;7.40;;
4700;SDS011;8724;51.272;6.554;2022-08-19T10:23:19;7.20;;;6.50;;
4700;SDS011;8724;51.272;6.554;2022-08-19T10:25:48;9.30;;;8.40;;
4700;SDS011;8724;51.272;6.554;2022-08-19T10:28:17;10.53;;;8.83;;
4700;SDS011;8724;51.272;6.554;2022-08-19T10:30:49;8.37;;;7.00;;
4700;SDS011;8724;51.272;6.554;2022-08-19T10:33:17;8.93;;;7.93;;
4700;SDS011;8724;51.272;6.554;2022-08-19T10:36:07;8.75;;;7.70;;
4700;SDS011;8724;51.272;6.554;2022-08-19T10:38:39;10.23;;;9.20;;
4700;SDS011;8724;51.272;6.554;2022-08-19T10:41:21;8.77;;;7.50;;
4700;SDS011;8724;51.272;6.554;2022-08-19T10:43:50;10.53;;;9.43;;
4700;SDS011;8724;51.272;6.554;2022-08-19T10:46:21;10.43;;;9.20;;
4700;SDS011;8724;51.272;6.554;2022-08-19T10:48:51;12.00;;;10.73;;
4700;SDS011;8724;51.272;6.554;2022-08-19T10:51:20;15.30;;;13.70;;
4700;SDS011;8724;51.272;6.554;2022-08-19T10:54:15;14.80;;;13.30;;
4700;SDS011;8724;51.272;6.554;2022-08-19T10:56:57;12.83;;;10.47;;
4700;SDS011;8724;51.272;6.554;2022-08-19T10:59:25;11.97;;;10.73;;
4700;SDS011;8724;51.272;6.554;2022-08-19T11:02:02;12.00;;;10.83;;
4700;SDS011;8724;51.272;6.554;2022-08-19T11:04:32;9.73;;;8.90;;
4700;SDS011;8724;51.272;6.554;2022-08-19T11:07:01;11.73;;;10.17;;
4700;SDS011;8724;51.272;6.554;2022-08-19T11:09:36;9.70;;;8.90;;
4700;SDS011;8724;51.272;6.554;2022-08-19T11:12:07;10.23;;;9.10;;
4700;SDS011;8724;51.272;6.554;2022-08-19T11:14:39;13.53;;;11.00;;
4700;SDS011;8724;51.272;6.554;2022-08-19T11:17:07;13.53;;;12.10;;
4700;SDS011;8724;51.272;6.554;2022-08-19T11:19:37;10.73;;;9.63;;
4700;SDS011;8724;51.272;6.554;2022-08-19T11:22:07;9.17;;;8.27;;
4700;SDS011;8724;51.272;6.554;2022-08-19T11:24:43;8.10;;;7.30;;
4700;SDS011;8724;51.272;6.554;2022-08-19T11:27:11;7.50;;;6.80;;
4700;SDS011;8724;51.272;6.554;2022-08-19T11:29:40;7.63;;;6.77;;
4700;SDS011;8724;51.272;6.554;2022-08-19T11:32:09;7.93;;;7.23;;
4700;SDS011;8724;51.272;6.554;2022-08-19T11:34:39;8.23;;;7.43;;
4700;SDS011;8724;51.272;6.554;2022-08-19T11:37:07;7.23;;;6.07;;
4700;SDS011;8724;51.272;6.554;2022-08-19T11:39:36;8.90;;;6.50;;
4700;SDS011;8724;51.272;6.554;2022-08-19T11:42:07;11.47;;;6.43;;
4700;SDS011;8724;51.272;6.554;2022-08-19T11:44:49;5.70;;;4.80;;
4700;SDS011;8724;51.272;6.554;2022-08-19T11:47:18;7.60;;;6.90;;
4700;SDS011;8724;51.272;6.554;2022-08-19T11:49:46;8.57;;;7.77;;
4700;SDS011;8724;51.272;6.554;2022-08-19T11:52:15;10.10;;;7.27;;
4700;SDS011;8724;51.272;6.554;2022-08-19T11:54:43;6.53;;;6.03;;
4700;SDS011;8724;51.272;6.554;2022-08-19T11:57:13;6.93;;;6.33;;
4700;SDS011;8724;51.272;6.554;2022-08-19T11:59:47;5.97;;;5.47;;
4700;SDS011;8724;51.272;6.554;2022-08-19T12:02:16;5.77;;;5.27;;
4700;SDS011;8724;51.272;6.554;2022-08-19T12:04:45;6.20;;;5.80;;
4700;SDS011;8724;51.272;6.554;2022-08-19T12:07:14;7.43;;;6.60;;
4700;SDS011;8724;51.272;6.554;2022-08-19T12:09:42;6.20;;;5.20;;
4700;SDS011;8724;51.272;6.554;2022-08-19T12:12:15;5.87;;;5.37;;
4700;SDS011;8724;51.272;6.554;2022-08-19T12:14:43;6.83;;;5.40;;
4700;SDS011;8724;51.272;6.554;2022-08-19T12:17:12;5.63;;;5.23;;
4700;SDS011;8724;51.272;6.554;2022-08-19T12:19:41;5.20;;;4.80;;
4700;SDS011;8724;51.272;6.554;2022-08-19T12:22:09;8.90;;;4.57;;
4700;SDS011;8724;51.272;6.554;2022-08-19T12:24:38;4.70;;;4.30;;
4700;SDS011;8724;51.272;6.554;2022-08-19T12:27:07;25.13;;;22.40;;
4700;SDS011;8724;51.272;6.554;2022-08-19T12:29:39;20.23;;;18.10;;
4700;SDS011;8724;51.272;6.554;2022-08-19T12:32:07;13.47;;;12.10;;
4700;SDS011;8724;51.272;6.554;2022-08-19T12:34:37;11.13;;;10.10;;
4700;SDS011;8724;51.272;6.554;2022-08-19T12:37:07;8.93;;;8.13;;
4700;SDS011;8724;51.272;6.554;2022-08-19T12:39:36;6.97;;;5.23;;
4700;SDS011;8724;51.272;6.554;2022-08-19T12:42:05;5.30;;;4.20;;
4700;SDS011;8724;51.272;6.554;2022-08-19T12:44:34;4.10;;;3.70;;
4700;SDS011;8724;51.272;6.554;2022-08-19T12:47:05;4.80;;;4.13;;
4700;SDS011;8724;51.272;6.554;2022-08-19T12:49:35;4.27;;;3.87;;
4700;SDS011;8724;51.272;6.554;2022-08-19T12:52:21;5.83;;;4.23;;
4700;SDS011;8724;51.272;6.554;2022-08-19T12:54:51;4.60;;;4.20;;
4700;SDS011;8724;51.272;6.554;2022-08-19T12:57:21;4.57;;;4.17;;
4700;SDS011;8724;51.272;6.554;2022-08-19T12:59:59;4.57;;;3.60;;
4700;SDS011;8724;51.272;6.554;2022-08-19T13:02:32;3.47;;;3.27;;
4700;SDS011;8724;51.272;6.554;2022-08-19T13:05:05;4.07;;;3.13;;
4700;SDS011;8724;51.272;6.554;2022-08-19T13:07:36;4.63;;;2.93;;
4700;SDS011;8724;51.272;6.554;2022-08-19T13:10:06;3.97;;;3.70;;
4700;SDS011;8724;51.272;6.554;2022-08-19T13:12:37;3.37;;;3.07;;
4700;SDS011;8724;51.272;6.554;2022-08-19T13:15:08;5.53;;;3.27;;
4700;SDS011;8724;51.272;6.554;2022-08-19T13:17:38;3.93;;;3.63;;
4700;SDS011;8724;51.272;6.554;2022-08-19T13:20:08;3.90;;;3.60;;
4700;SDS011;8724;51.272;6.554;2022-08-19T13:22:37;3.93;;;3.63;;
4700;SDS011;8724;51.272;6.554;2022-08-19T13:25:07;3.63;;;3.37;;
4700;SDS011;8724;51.272;6.554;2022-08-19T13:27:36;5.40;;;3.90;;
4700;SDS011;8724;51.272;6.554;2022-08-19T13:30:06;6.73;;;3.70;;
4700;SDS011;8724;51.272;6.554;2022-08-19T13:32:55;4.53;;;3.90;;
4700;SDS011;8724;51.272;6.554;2022-08-19T13:35:42;4.47;;;3.50;;
4700;SDS011;8724;51.272;6.554;2022-08-19T13:38:13;2.93;;;2.73;;
4700;SDS011;8724;51.272;6.554;2022-08-19T13:40:43;9.43;;;8.43;;
4700;SDS011;8724;51.272;6.554;2022-08-19T13:43:13;10.20;;;8.67;;
4700;SDS011;8724;51.272;6.554;2022-08-19T13:45:49;6.33;;;5.00;;
4700;SDS011;8724;51.272;6.554;2022-08-19T13:48:23;5.10;;;4.03;;
4700;SDS011;8724;51.272;6.554;2022-08-19T13:50:53;3.70;;;3.40;;
4700;SDS011;8724;51.272;6.554;2022-08-19T13:53:22;6.23;;;3.70;;
4700;SDS011;8724;51.272;6.554;2022-08-19T13:55:51;4.10;;;3.70;;
4700;SDS011;8724;51.272;6.554;2022-08-19T13:58:21;3.67;;;3.37;;
4700;SDS011;8724;51.272;6.554;2022-08-19T14:00:50;5.20;;;3.40;;
4700;SDS011;8724;51.272;6.554;2022-08-19T14:03:18;3.50;;;3.20;;
4700;SDS011;8724;51.272;6.554;2022-08-19T14:05:48;3.77;;;3.17;;
4700;SDS011;8724;51.272;6.554;2022-08-19T14:08:16;3.63;;;3.33;;
4700;SDS011;8724;51.272;6.554;2022-08-19T14:10:45;3.87;;;3.57;;
4700;SDS011;8724;51.272;6.554;2022-08-19T14:13:15;4.60;;;3.40;;
4700;SDS011;8724;51.272;6.554;2022-08-19T14:15:46;5.80;;;3.57;;
4700;SDS011;8724;51.272;6.554;2022-08-19T14:18:15;3.87;;;3.00;;
4700;SDS011;8724;51.272;6.554;2022-08-19T14:20:44;3.60;;;3.30;;
4700;SDS011;8724;51.272;6.554;2022-08-19T14:23:14;3.90;;;3.20;;
4700;SDS011;8724;51.272;6.554;2022-08-19T14:25:43;3.37;;;3.07;;
4700;SDS011;8724;51.272;6.554;2022-08-19T14:28:12;3.43;;;3.13;;
4700;SDS011;8724;51.272;6.554;2022-08-19T14:30:41;2.80;;;2.53;;
4700;SDS011;8724;51.272;6.554;2022-08-19T14:33:10;3.70;;;2.90;;
4700;SDS011;8724;51.272;6.554;2022-08-19T14:35:40;4.30;;;3.87;;
4700;SDS011;8724;51.272;6.554;2022-08-19T14:38:16;4.50;;;3.17;;
4700;SDS011;8724;51.272;6.554;2022-08-19T14:41:05;3.13;;;2.83;;
4700;SDS011;8724;51.272;6.554;2022-08-19T14:43:35;4.77;;;3.50;;
4700;SDS011;8724;51.272;6.554;2022-08-19T14:46:04;4.63;;;3.40;;
4700;SDS011;8724;51.272;6.554;2022-08-19T14:48:36;3.97;;;3.67;;
4700;SDS011;8724;51.272;6.554;2022-08-19T14:51:07;6.17;;;5.20;;
4700;SDS011;8724;51.272;6.554;2022-08-19T14:53:37;13.20;;;11.80;;
4700;SDS011;8724;51.272;6.554;2022-08-19T14:56:09;9.10;;;7.87;;
4700;SDS011;8724;51.272;6.554;2022-08-19T14:58:39;4.87;;;4.30;;
4700;SDS011;8724;51.272;6.554;2022-08-19T15:01:09;4.37;;;4.00;;
4700;SDS011;8724;51.272;6.554;2022-08-19T15:03:38;4.80;;;4.40;;
4700;SDS011;8724;51.272;6.554;2022-08-19T15:06:07;5.50;;;4.47;;
4700;SDS011;8724;51.272;6.554;2022-08-19T15:08:40;5.60;;;5.00;;
4700;SDS011;8724;51.272;6.554;2022-08-19T15:11:09;4.90;;;4.40;;
4700;SDS011;8724;51.272;6.554;2022-08-19T15:13:41;6.67;;;5.60;;
4700;SDS011;8724;51.272;6.554;2022-08-19T15:16:10;4.60;;;4.20;;
4700;SDS011;8724;51.272;6.554;2022-08-19T15:18:44;5.53;;;5.03;;
4700;SDS011;8724;51.272;6.554;2022-08-19T15:21:13;4.87;;;3.87;;